Time;durP1;ratioP1;P1;durP2;ratioP2;P2;SDS_P1;SDS_P2;PMS_P1;PMS_P2;Temp;Humidity;BMP_temperature;BMP_pressure;BME280_temperature;BME280_humidity;BME280_pressure;Samples;Min_cycle;Max_cycle;Signal;HPM_P1;HPM_P2
2022/08/31 00:05:45;;;;;;;2.27;0.20;;;15.90;63.70;;;;;;4937009;28;20917;-67
2022/08/31 00:08:11;;;;;;;1.87;0.27;;;15.90;63.90;;;;;;4931023;29;20341;-67
2022/08/31 00:10:40;;;;;;;1.40;0.30;;;15.80;64.00;;;;;;4934162;29;20803;-67
2022/08/31 00:13:06;;;;;;;1.13;0.40;;;15.80;63.90;;;;;;4916447;28;20051;-67
2022/08/31 00:15:33;;;;;;;1.47;0.40;;;15.70;64.10;;;;;;4928408;28;20287;-67
2022/08/31 00:17:59;;;;;;;0.63;0.20;;;15.70;64.10;;;;;;4930599;28;20299;-67
2022/08/31 00:20:26;;;;;;;2.07;0.30;;;15.70;64.10;;;;;;4933785;29;20429;-67
2022/08/31 00:22:52;;;;;;;3.33;0.30;;;15.60;64.20;;;;;;4915172;28;20567;-67
2022/08/31 00:25:18;;;;;;;0.83;0.23;;;15.60;64.50;;;;;;4913797;29;20379;-68
2022/08/31 00:27:44;;;;;;;0.40;0.30;;;15.50;64.70;;;;;;4924681;29;20101;-67
2022/08/31 00:30:11;;;;;;;1.33;0.30;;;15.40;64.80;;;;;;4915512;29;20046;-67
2022/08/31 00:32:37;;;;;;;1.73;0.30;;;15.40;65.20;;;;;;4922551;28;20051;-67
2022/08/31 00:35:04;;;;;;;2.30;0.30;;;15.40;65.40;;;;;;4916047;28;20291;-67
2022/08/31 00:37:30;;;;;;;2.90;0.40;;;15.30;65.50;;;;;;4914219;28;20354;-68
2022/08/31 00:39:56;;;;;;;1.17;0.20;;;15.30;65.50;;;;;;4928577;29;20279;-68
2022/08/31 00:42:22;;;;;;;3.10;0.40;;;15.30;65.70;;;;;;4933594;28;20102;-68
2022/08/31 00:44:48;;;;;;;1.03;0.50;;;15.20;65.90;;;;;;4910685;29;20479;-68
2022/08/31 00:47:14;;;;;;;2.60;0.30;;;15.20;66.10;;;;;;4920666;28;20307;-67
2022/08/31 00:49:45;;;;;;;3.67;0.40;;;15.20;66.20;;;;;;4915458;29;20299;-68
2022/08/31 00:52:23;;;;;;;0.60;0.30;;;15.20;66.20;;;;;;4914055;28;20082;-67
2022/08/31 00:54:53;;;;;;;1.20;0.40;;;15.20;66.20;;;;;;4920124;29;20426;-67
2022/08/31 00:57:20;;;;;;;2.30;0.50;;;15.20;66.10;;;;;;4917145;29;20378;-67
2022/08/31 00:59:47;;;;;;;0.40;0.20;;;15.20;66.30;;;;;;4922566;29;20528;-67
2022/08/31 01:02:13;;;;;;;0.87;0.27;;;15.20;66.40;;;;;;4917744;29;20283;-67
2022/08/31 01:04:39;;;;;;;0.90;0.30;;;15.20;66.40;;;;;;4906378;29;20318;-67
2022/08/31 01:07:07;;;;;;;0.57;0.30;;;15.20;66.20;;;;;;4915847;29;20343;-67
2022/08/31 01:09:37;;;;;;;1.57;0.30;;;15.20;66.40;;;;;;4928845;29;20039;-67
2022/08/31 01:12:06;;;;;;;3.30;0.40;;;15.20;66.10;;;;;;4931910;29;20290;-67
2022/08/31 01:14:32;;;;;;;0.80;0.30;;;15.10;66.10;;;;;;4932820;28;20294;-67
2022/08/31 01:16:58;;;;;;;0.50;0.30;;;15.10;66.10;;;;;;4898416;29;20329;-67
2022/08/31 01:19:29;;;;;;;2.13;0.30;;;15.00;66.00;;;;;;4915391;28;20377;-68
2022/08/31 01:22:16;;;;;;;0.97;0.20;;;15.00;66.30;;;;;;4927182;29;20933;-67
2022/08/31 01:24:45;;;;;;;0.90;0.30;;;14.90;66.20;;;;;;4936620;28;20376;-67
2022/08/31 01:27:13;;;;;;;0.93;0.20;;;14.80;66.10;;;;;;4917697;29;20283;-68
2022/08/31 01:29:39;;;;;;;0.80;0.40;;;14.80;66.30;;;;;;4922341;29;20377;-67
2022/08/31 01:32:06;;;;;;;1.00;0.30;;;14.80;66.30;;;;;;4933785;28;20370;-67
2022/08/31 01:34:32;;;;;;;1.00;0.23;;;14.70;66.50;;;;;;4906130;28;20322;-67
2022/08/31 01:36:59;;;;;;;0.73;0.20;;;14.70;66.60;;;;;;4912851;29;20941;-67
2022/08/31 01:39:25;;;;;;;1.00;0.30;;;14.60;66.70;;;;;;4917771;28;20287;-67
2022/08/31 01:41:51;;;;;;;0.83;0.30;;;14.50;66.80;;;;;;4911543;29;20284;-67
2022/08/31 01:44:20;;;;;;;1.90;0.30;;;14.50;66.90;;;;;;4924829;29;20282;-68
2022/08/31 01:46:46;;;;;;;1.63;0.30;;;14.40;67.10;;;;;;4923689;29;20167;-68
2022/08/31 01:49:14;;;;;;;0.60;0.20;;;14.40;67.00;;;;;;4884099;28;21255;-68
2022/08/31 01:51:40;;;;;;;1.23;0.50;;;14.40;67.10;;;;;;4931200;28;20283;-68
2022/08/31 01:54:06;;;;;;;1.93;0.37;;;14.40;67.10;;;;;;4916944;28;20352;-68
2022/08/31 01:56:36;;;;;;;1.43;0.30;;;14.30;67.30;;;;;;4909195;29;20298;-67
2022/08/31 01:59:03;;;;;;;1.60;0.30;;;14.30;67.30;;;;;;4927857;29;20058;-67
2022/08/31 02:01:32;;;;;;;1.53;0.20;;;14.30;67.40;;;;;;4917143;28;20626;-67
2022/08/31 02:03:58;;;;;;;1.93;0.30;;;14.20;67.50;;;;;;4935978;29;20373;-67
2022/08/31 02:06:24;;;;;;;1.13;0.20;;;14.20;67.60;;;;;;4928784;29;20776;-67
2022/08/31 02:08:50;;;;;;;1.53;0.20;;;14.10;67.90;;;;;;4917204;29;20413;-67
2022/08/31 02:11:16;;;;;;;1.53;0.20;;;14.10;67.80;;;;;;4927641;29;20276;-67
2022/08/31 02:13:42;;;;;;;0.63;0.20;;;14.10;67.80;;;;;;4933090;28;20043;-67
2022/08/31 02:16:08;;;;;;;0.70;0.30;;;14.10;67.70;;;;;;4936413;29;20046;-67
2022/08/31 02:18:35;;;;;;;0.57;0.20;;;14.10;67.70;;;;;;4924068;29;20303;-67
2022/08/31 02:21:01;;;;;;;0.60;0.20;;;14.00;67.80;;;;;;4943096;28;20508;-67
2022/08/31 02:23:27;;;;;;;0.60;0.30;;;14.00;67.70;;;;;;4924118;28;20287;-67
2022/08/31 02:25:54;;;;;;;1.13;0.20;;;14.00;67.70;;;;;;4941888;28;20280;-67
2022/08/31 02:28:20;;;;;;;1.33;0.30;;;13.90;67.70;;;;;;4911741;29;20043;-67
2022/08/31 02:30:46;;;;;;;1.33;0.20;;;13.90;67.80;;;;;;4929460;29;20287;-67
2022/08/31 02:33:12;;;;;;;2.43;0.33;;;13.80;67.90;;;;;;4932519;29;20291;-67
2022/08/31 02:35:38;;;;;;;0.73;0.20;;;13.80;68.00;;;;;;4926751;28;22067;-68
2022/08/31 02:38:05;;;;;;;0.80;0.33;;;13.70;68.30;;;;;;4931490;29;20559;-67
2022/08/31 02:40:32;;;;;;;2.47;0.30;;;13.70;68.30;;;;;;4914907;28;20130;-68
2022/08/31 02:42:57;;;;;;;1.57;0.30;;;13.60;68.50;;;;;;4933972;29;20291;-67
2022/08/31 02:45:24;;;;;;;1.27;0.30;;;13.60;68.60;;;;;;4900655;28;20294;-67
2022/08/31 02:47:50;;;;;;;0.97;0.30;;;13.50;68.80;;;;;;4930469;29;20040;-67
2022/08/31 02:50:16;;;;;;;0.73;0.40;;;13.50;68.90;;;;;;4906278;29;20355;-67
2022/08/31 02:52:41;;;;;;;0.60;0.37;;;13.40;69.20;;;;;;4908434;29;20290;-67
2022/08/31 02:55:07;;;;;;;2.60;0.30;;;13.30;69.20;;;;;;4910667;29;20075;-67
2022/08/31 02:57:33;;;;;;;1.00;0.30;;;13.30;69.40;;;;;;4930466;28;20164;-67
2022/08/31 02:59:58;;;;;;;0.80;0.30;;;13.20;69.30;;;;;;4919287;29;20515;-67
2022/08/31 03:02:24;;;;;;;2.10;0.30;;;13.20;69.50;;;;;;4886778;29;20055;-67
2022/08/31 03:04:50;;;;;;;1.57;0.30;;;13.10;69.80;;;;;;4930326;29;20039;-67
2022/08/31 03:07:17;;;;;;;0.60;0.30;;;13.10;70.00;;;;;;4901716;29;20966;-67
2022/08/31 03:09:43;;;;;;;1.03;0.10;;;13.10;70.10;;;;;;4930504;28;20641;-67
2022/08/31 03:12:08;;;;;;;1.37;0.20;;;13.10;70.10;;;;;;4906070;29;20287;-67
2022/08/31 03:14:34;;;;;;;0.60;0.20;;;13.00;70.50;;;;;;4930203;29;20096;-67
2022/08/31 03:17:00;;;;;;;1.20;0.20;;;13.00;70.30;;;;;;4943579;28;20039;-67
2022/08/31 03:19:25;;;;;;;1.10;0.30;;;13.00;70.40;;;;;;4934331;28;20046;-68
2022/08/31 03:21:51;;;;;;;2.17;0.20;;;13.00;70.50;;;;;;4924829;29;20039;-67
2022/08/31 03:24:17;;;;;;;0.70;0.30;;;13.00;70.60;;;;;;4932656;29;20031;-68
2022/08/31 03:26:44;;;;;;;0.60;0.20;;;13.00;70.50;;;;;;4904636;29;20130;-67
2022/08/31 03:29:10;;;;;;;0.40;0.20;;;13.00;70.50;;;;;;4929410;28;20042;-67
2022/08/31 03:31:36;;;;;;;1.43;0.23;;;13.00;70.60;;;;;;4917344;28;20299;-67
2022/08/31 03:34:02;;;;;;;3.83;0.20;;;13.00;70.70;;;;;;4927891;29;20077;-67
2022/08/31 03:36:27;;;;;;;1.53;0.17;;;12.90;70.70;;;;;;4933424;28;20736;-67
2022/08/31 03:38:53;;;;;;;0.63;0.17;;;12.90;70.60;;;;;;4902246;28;20134;-67
2022/08/31 03:41:23;;;;;;;0.60;0.10;;;12.90;70.60;;;;;;4933134;29;20046;-67
2022/08/31 03:43:48;;;;;;;4.57;0.63;;;12.90;70.80;;;;;;4911766;29;20285;-67
2022/08/31 03:46:14;;;;;;;0.60;0.20;;;12.90;70.70;;;;;;4928504;29;20799;-67
2022/08/31 03:48:40;;;;;;;2.27;0.13;;;12.90;70.60;;;;;;4911971;28;20043;-67
2022/08/31 03:51:06;;;;;;;0.77;0.20;;;13.00;70.90;;;;;;4902369;29;20550;-67
2022/08/31 03:53:32;;;;;;;0.60;0.10;;;13.00;70.60;;;;;;4904235;28;20039;-67
2022/08/31 03:56:02;;;;;;;2.03;0.20;;;13.00;70.70;;;;;;4935513;29;20286;-67
2022/08/31 03:58:29;;;;;;;3.30;0.20;;;13.00;70.70;;;;;;4924769;29;20060;-67
2022/08/31 04:00:55;;;;;;;0.97;0.30;;;13.00;70.70;;;;;;4903516;29;20363;-67
2022/08/31 04:03:22;;;;;;;0.40;0.20;;;13.00;70.70;;;;;;4924502;28;20359;-67
2022/08/31 04:05:49;;;;;;;0.87;0.30;;;13.00;70.70;;;;;;4931405;29;20279;-67
2022/08/31 04:08:16;;;;;;;1.57;0.20;;;13.00;70.90;;;;;;4924041;28;20299;-67
2022/08/31 04:10:44;;;;;;;0.30;0.20;;;12.90;70.80;;;;;;4927014;29;20291;-67
2022/08/31 04:13:10;;;;;;;0.60;0.30;;;12.90;71.30;;;;;;4913938;28;20350;-67
2022/08/31 04:15:37;;;;;;;3.13;0.77;;;12.80;71.10;;;;;;4921773;28;20291;-67
2022/08/31 04:18:03;;;;;;;1.73;0.30;;;12.80;71.30;;;;;;4930969;28;20299;-67
2022/08/31 04:20:33;;;;;;;0.63;0.20;;;12.80;71.40;;;;;;4910605;29;20303;-67
2022/08/31 04:22:59;;;;;;;0.47;0.20;;;12.80;71.40;;;;;;4924635;29;20295;-67
2022/08/31 04:25:24;;;;;;;1.37;0.40;;;12.80;71.50;;;;;;4884041;29;20355;-68
2022/08/31 04:27:53;;;;;;;2.40;0.33;;;12.80;71.50;;;;;;4933120;28;20511;-67
2022/08/31 04:30:20;;;;;;;1.07;0.30;;;12.80;72.00;;;;;;4910711;29;20039;-67
2022/08/31 04:32:46;;;;;;;1.17;0.40;;;12.80;72.00;;;;;;4909410;28;20303;-67
2022/08/31 04:35:13;;;;;;;0.77;0.20;;;12.70;72.00;;;;;;4900097;29;21128;-67
2022/08/31 04:37:40;;;;;;;1.43;0.40;;;12.70;72.10;;;;;;4915860;28;20309;-67
2022/08/31 04:40:18;;;;;;;1.63;0.40;;;12.70;72.20;;;;;;4915445;29;20298;-67
2022/08/31 04:42:46;;;;;;;0.70;0.40;;;12.70;72.30;;;;;;4931106;29;20294;-67
2022/08/31 04:45:12;;;;;;;0.70;0.33;;;12.80;72.40;;;;;;4922285;29;20322;-67
2022/08/31 04:47:40;;;;;;;2.20;0.80;;;12.80;72.30;;;;;;4916770;28;20441;-67
2022/08/31 04:50:07;;;;;;;0.60;0.30;;;12.80;72.50;;;;;;4913329;29;20467;-67
2022/08/31 04:52:33;;;;;;;1.50;0.33;;;12.70;72.70;;;;;;4908721;29;20788;-67
2022/08/31 04:54:58;;;;;;;1.03;0.50;;;12.70;72.70;;;;;;4931344;29;20850;-67
2022/08/31 04:57:24;;;;;;;1.27;0.50;;;12.70;72.90;;;;;;4927421;28;20314;-67
2022/08/31 04:59:50;;;;;;;2.23;0.70;;;12.70;73.00;;;;;;4899331;29;20049;-67
2022/08/31 05:02:16;;;;;;;1.67;0.70;;;12.70;73.20;;;;;;4929723;29;20043;-67
2022/08/31 05:04:41;;;;;;;2.13;0.80;;;12.70;73.60;;;;;;4896570;29;20134;-67
2022/08/31 05:07:07;;;;;;;2.37;0.53;;;12.70;73.90;;;;;;4914321;29;20071;-67
2022/08/31 05:09:33;;;;;;;1.47;0.70;;;12.70;73.80;;;;;;4932987;29;20039;-67
2022/08/31 05:11:59;;;;;;;1.20;0.80;;;12.70;73.90;;;;;;4927086;29;20619;-67
2022/08/31 05:14:25;;;;;;;2.63;0.53;;;12.70;74.00;;;;;;4912932;29;20303;-67
2022/08/31 05:16:51;;;;;;;1.93;0.57;;;12.80;74.10;;;;;;4949903;28;20503;-67
2022/08/31 05:19:18;;;;;;;1.50;0.50;;;12.80;74.20;;;;;;4932466;29;20043;-67
2022/08/31 05:21:44;;;;;;;1.73;0.60;;;12.90;74.10;;;;;;4928321;28;20291;-68
2022/08/31 05:24:14;;;;;;;0.90;0.70;;;12.90;74.20;;;;;;4914248;29;20285;-67
2022/08/31 05:26:44;;;;;;;2.47;0.83;;;12.90;74.30;;;;;;4931409;29;20784;-67
2022/08/31 05:29:13;;;;;;;3.07;0.60;;;12.90;74.40;;;;;;4932330;28;20287;-67
2022/08/31 05:31:39;;;;;;;1.07;0.70;;;12.90;74.60;;;;;;4914874;28;20282;-68
2022/08/31 05:34:05;;;;;;;2.00;0.60;;;13.00;74.70;;;;;;4929600;28;20290;-68
2022/08/31 05:36:32;;;;;;;2.40;0.50;;;13.00;74.40;;;;;;4896700;29;20299;-68
2022/08/31 05:38:59;;;;;;;1.67;0.67;;;13.00;74.50;;;;;;4918069;28;20307;-68
2022/08/31 05:41:26;;;;;;;1.90;0.97;;;13.00;74.70;;;;;;4910242;28;20287;-67
2022/08/31 05:43:52;;;;;;;1.67;0.47;;;13.10;74.70;;;;;;4926485;28;20279;-68
2022/08/31 05:46:18;;;;;;;2.80;0.93;;;13.20;74.70;;;;;;4878047;29;20305;-68
2022/08/31 05:48:44;;;;;;;5.83;1.00;;;13.30;74.40;;;;;;4909900;28;20488;-68
2022/08/31 05:51:15;;;;;;;3.07;0.60;;;13.30;74.60;;;;;;4911068;29;20102;-68
2022/08/31 05:53:41;;;;;;;2.50;0.70;;;13.40;74.50;;;;;;4917334;28;20130;-67
2022/08/31 05:56:10;;;;;;;1.93;0.67;;;13.40;74.50;;;;;;4926054;29;20286;-67
2022/08/31 05:58:37;;;;;;;1.83;0.60;;;13.50;74.40;;;;;;4920908;28;20340;-67
2022/08/31 06:01:04;;;;;;;2.50;0.50;;;13.50;74.40;;;;;;4921253;28;20647;-67
2022/08/31 06:03:29;;;;;;;1.43;0.60;;;13.60;74.50;;;;;;4912196;28;20771;-67
2022/08/31 06:05:55;;;;;;;1.77;0.50;;;13.70;74.20;;;;;;4907477;29;20337;-67
2022/08/31 06:08:21;;;;;;;1.70;0.60;;;13.70;74.30;;;;;;4926130;28;20483;-68
2022/08/31 06:10:47;;;;;;;1.03;0.50;;;13.80;73.90;;;;;;4904423;29;20047;-68
2022/08/31 06:13:17;;;;;;;0.70;0.50;;;13.90;73.70;;;;;;4926338;28;20043;-68
2022/08/31 06:15:43;;;;;;;1.80;0.50;;;14.00;73.30;;;;;;4922096;28;20282;-68
2022/08/31 06:18:10;;;;;;;2.07;0.70;;;14.10;73.10;;;;;;4927672;28;20826;-68
2022/08/31 06:20:36;;;;;;;2.80;0.57;;;14.20;72.60;;;;;;4925995;29;20318;-68
2022/08/31 06:23:07;;;;;;;0.90;0.50;;;14.40;72.40;;;;;;4903067;28;20653;-68
2022/08/31 06:25:35;;;;;;;2.67;0.50;;;14.40;72.30;;;;;;4916231;28;20286;-68
2022/08/31 06:28:06;;;;;;;2.03;1.00;;;14.50;72.40;;;;;;4931354;28;20290;-68
2022/08/31 06:30:41;;;;;;;1.90;0.43;;;14.60;72.40;;;;;;4904340;29;20291;-68
2022/08/31 06:33:06;;;;;;;2.85;0.57;;;14.70;72.20;;;;;;4900550;29;20701;-68
2022/08/31 06:35:32;;;;;;;2.37;0.50;;;14.80;71.70;;;;;;4934956;29;20134;-68
2022/08/31 06:37:58;;;;;;;0.67;0.40;;;14.90;71.30;;;;;;4916578;29;20122;-68
2022/08/31 06:40:25;;;;;;;2.17;0.60;;;15.00;71.20;;;;;;4933272;29;20451;-68
2022/08/31 06:42:51;;;;;;;1.13;0.50;;;15.10;70.90;;;;;;4899931;29;20040;-68
2022/08/31 06:45:17;;;;;;;1.00;0.30;;;15.10;70.70;;;;;;4917602;28;20282;-68
2022/08/31 06:47:43;;;;;;;1.43;0.40;;;15.20;70.60;;;;;;4917314;29;20634;-68
2022/08/31 06:50:09;;;;;;;1.10;0.30;;;15.30;70.20;;;;;;4943044;28;20050;-68
2022/08/31 06:52:35;;;;;;;1.67;0.40;;;15.50;69.90;;;;;;4923805;28;20312;-68
2022/08/31 06:55:00;;;;;;;1.87;0.30;;;15.60;69.80;;;;;;4926956;28;20778;-68
2022/08/31 06:57:26;;;;;;;0.73;0.40;;;15.70;68.90;;;;;;4922337;28;20074;-68
2022/08/31 06:59:52;;;;;;;1.20;0.37;;;15.80;68.70;;;;;;4937557;28;20047;-68
2022/08/31 07:02:19;;;;;;;0.73;0.30;;;15.90;68.00;;;;;;4934827;28;20060;-68
2022/08/31 07:04:45;;;;;;;1.23;0.30;;;16.00;67.00;;;;;;4927142;28;20812;-68
2022/08/31 07:07:10;;;;;;;0.77;0.47;;;16.20;66.60;;;;;;4939533;28;20279;-68
2022/08/31 07:09:38;;;;;;;2.30;0.50;;;16.20;66.40;;;;;;4915772;28;20606;-68
2022/08/31 07:12:04;;;;;;;0.80;0.40;;;16.30;66.60;;;;;;4919172;28;20043;-68
2022/08/31 07:14:30;;;;;;;0.73;0.30;;;16.40;66.40;;;;;;4921724;28;20287;-68
2022/08/31 07:16:57;;;;;;;2.13;0.20;;;16.60;65.70;;;;;;4950309;28;20286;-68
2022/08/31 07:19:23;;;;;;;0.60;0.20;;;16.70;65.40;;;;;;4918323;28;20179;-68
2022/08/31 07:21:58;;;;;;;0.40;0.20;;;16.80;65.50;;;;;;4933631;28;20369;-68
2022/08/31 07:24:28;;;;;;;0.60;0.30;;;16.90;64.20;;;;;;4910345;28;20278;-68
2022/08/31 07:26:57;;;;;;;1.23;0.40;;;17.00;64.40;;;;;;4923852;29;20071;-68
2022/08/31 07:29:28;;;;;;;1.17;0.20;;;17.10;64.20;;;;;;4928589;28;20326;-68
2022/08/31 07:31:56;;;;;;;0.90;0.30;;;17.20;64.00;;;;;;4911706;29;20286;-68
2022/08/31 07:34:28;;;;;;;0.80;0.30;;;17.30;63.80;;;;;;4930971;28;20655;-68
2022/08/31 07:42:28;;;;;;;1.30;0.20;;;17.50;63.10;;;;;;4919888;28;20283;-68
2022/08/31 07:44:56;;;;;;;0.40;0.20;;;17.60;62.50;;;;;;4921801;28;20051;-68
2022/08/31 07:47:24;;;;;;;0.40;0.20;;;17.70;62.40;;;;;;4933791;28;20327;-68
2022/08/31 07:49:52;;;;;;;1.20;0.30;;;17.80;61.30;;;;;;4930857;29;20287;-68
2022/08/31 07:52:23;;;;;;;1.13;0.30;;;17.90;61.20;;;;;;4916416;28;20726;-68
2022/08/31 07:54:52;;;;;;;1.00;0.20;;;18.00;60.70;;;;;;4929062;29;20398;-68
2022/08/31 07:57:18;;;;;;;0.90;0.20;;;18.10;59.90;;;;;;4921368;28;20319;-68
2022/08/31 07:59:45;;;;;;;1.00;0.20;;;18.20;58.50;;;;;;4922729;29;20334;-68
2022/08/31 08:02:13;;;;;;;0.30;0.10;;;18.30;58.10;;;;;;4914628;28;20294;-68
2022/08/31 08:04:43;;;;;;;0.53;0.20;;;18.30;58.80;;;;;;4895071;28;20318;-68
2022/08/31 08:07:10;;;;;;;0.63;0.10;;;18.40;58.20;;;;;;4936494;28;20278;-68
2022/08/31 08:09:37;;;;;;;0.97;0.40;;;18.40;58.00;;;;;;4928064;29;20274;-68
2022/08/31 08:12:05;;;;;;;0.60;0.20;;;18.50;58.30;;;;;;4915984;29;20279;-68
2022/08/31 08:14:36;;;;;;;1.30;0.30;;;18.60;57.40;;;;;;4909187;28;20279;-68
2022/08/31 08:17:04;;;;;;;0.93;0.30;;;18.60;57.10;;;;;;4916215;29;20274;-69
2022/08/31 08:19:30;;;;;;;0.50;0.20;;;18.70;56.80;;;;;;4934038;28;20290;-69
2022/08/31 08:21:56;;;;;;;0.80;0.10;;;18.70;56.40;;;;;;4932366;29;20270;-69
2022/08/31 08:24:22;;;;;;;0.73;0.20;;;18.80;56.90;;;;;;4905452;29;20062;-69
2022/08/31 08:26:50;;;;;;;0.87;0.20;;;18.90;56.60;;;;;;4934723;29;20645;-69
2022/08/31 08:29:16;;;;;;;0.73;0.13;;;19.00;56.50;;;;;;4933759;28;20055;-68
2022/08/31 08:31:50;;;;;;;1.23;0.10;;;19.10;55.40;;;;;;4918782;29;20616;-69
2022/08/31 08:34:18;;;;;;;0.30;0.20;;;19.10;55.10;;;;;;4916136;28;20362;-69
2022/08/31 08:36:45;;;;;;;1.50;0.20;;;19.10;55.20;;;;;;4896396;29;20893;-68
2022/08/31 08:39:13;;;;;;;0.90;0.57;;;19.20;55.30;;;;;;4933702;28;20326;-68
2022/08/31 08:41:42;;;;;;;1.13;0.20;;;19.30;55.00;;;;;;4935687;29;20290;-68
2022/08/31 08:44:11;;;;;;;0.90;0.40;;;19.30;54.90;;;;;;4918972;28;20281;-68
2022/08/31 08:46:50;;;;;;;2.20;0.43;;;19.40;54.30;;;;;;4934696;29;20877;-68
2022/08/31 08:49:34;;;;;;;0.80;0.20;;;19.40;54.50;;;;;;4928490;29;20275;-68
2022/08/31 08:52:05;;;;;;;0.60;0.10;;;19.40;54.70;;;;;;4921786;28;20283;-68
2022/08/31 08:54:34;;;;;;;1.80;0.27;;;19.50;54.50;;;;;;4939027;29;20632;-68
2022/08/31 08:57:06;;;;;;;1.40;0.20;;;19.60;54.70;;;;;;4931015;29;20287;-68
2022/08/31 08:59:32;;;;;;;2.07;0.20;;;19.70;53.70;;;;;;4918030;29;20434;-69
2022/08/31 09:02:03;;;;;;;1.57;0.20;;;19.70;54.60;;;;;;4933982;28;20373;-69
2022/08/31 09:04:58;;;;;;;1.47;0.33;;;19.80;54.60;;;;;;4933952;29;20449;-69
2022/08/31 09:08:08;;;;;;;0.57;0.20;;;19.90;55.20;;;;;;4933464;29;20339;-69
2022/08/31 09:10:44;;;;;;;0.67;0.10;;;20.10;53.80;;;;;;4866777;29;20294;-68
2022/08/31 09:13:29;;;;;;;1.27;0.20;;;20.10;53.60;;;;;;4919544;28;20292;-68
2022/08/31 09:16:21;;;;;;;1.03;0.17;;;20.20;53.50;;;;;;4924394;28;20283;-69
2022/08/31 09:18:59;;;;;;;1.50;0.20;;;20.30;53.00;;;;;;4918231;29;20433;-69
2022/08/31 09:21:28;;;;;;;1.87;0.20;;;20.40;53.00;;;;;;4919948;28;20289;-69
2022/08/31 09:24:12;;;;;;;0.57;0.20;;;20.40;52.10;;;;;;4929751;29;20342;-69
2022/08/31 09:27:17;;;;;;;0.70;0.22;;;20.40;52.30;;;;;;4918562;29;20267;-69
2022/08/31 09:29:53;;;;;;;0.57;0.30;;;20.40;52.20;;;;;;4922635;28;20138;-69
2022/08/31 09:32:31;;;;;;;0.90;0.20;;;20.50;52.10;;;;;;4935579;29;20922;-69
2022/08/31 09:35:00;;;;;;;0.60;0.20;;;20.50;51.00;;;;;;4923379;29;20426;-69
2022/08/31 09:37:47;;;;;;;2.63;0.57;;;20.60;51.10;;;;;;4930826;28;20310;-69
2022/08/31 09:40:30;;;;;;;1.07;0.20;;;20.60;51.00;;;;;;4915137;29;20043;-69
2022/08/31 09:43:13;;;;;;;3.90;0.30;;;20.60;50.60;;;;;;4932644;29;20318;-69
2022/08/31 09:45:49;;;;;;;0.97;0.47;;;20.70;50.70;;;;;;4930281;28;20759;-69
2022/08/31 09:48:42;;;;;;;0.30;0.20;;;20.70;51.20;;;;;;4918017;29;20366;-69
2022/08/31 09:51:19;;;;;;;0.63;0.40;;;20.80;51.70;;;;;;4931949;29;20054;-69
2022/08/31 09:56:30;;;;;;;0.52;0.20;;;21.00;50.70;;;;;;4909633;29;20330;-69
2022/08/31 09:59:01;;;;;;;0.43;0.30;;;21.10;50.80;;;;;;4895748;29;20051;-69
2022/08/31 10:01:27;;;;;;;1.10;0.20;;;21.30;50.00;;;;;;4908332;29;20082;-69
2022/08/31 10:04:14;;;;;;;1.70;0.30;;;21.40;49.90;;;;;;4905610;28;20132;-69
2022/08/31 10:06:45;;;;;;;1.57;0.20;;;21.50;48.70;;;;;;4905857;28;20032;-68
2022/08/31 10:09:25;;;;;;;1.17;0.13;;;21.50;49.20;;;;;;4911690;29;20460;-68
2022/08/31 10:11:53;;;;;;;1.47;0.17;;;21.70;49.80;;;;;;4929945;29;20036;-68
2022/08/31 10:14:21;;;;;;;2.93;0.20;;;21.80;48.50;;;;;;4920088;29;20067;-69
2022/08/31 10:17:03;;;;;;;0.97;0.30;;;21.90;48.60;;;;;;4917931;29;20043;-68
2022/08/31 10:19:50;;;;;;;1.13;0.20;;;22.00;47.60;;;;;;4925502;28;20055;-68
2022/08/31 10:22:49;;;;;;;0.30;0.20;;;22.00;47.00;;;;;;4926912;29;20074;-68
2022/08/31 10:25:30;;;;;;;1.43;0.20;;;22.00;47.60;;;;;;4920478;29;20052;-68
2022/08/31 10:28:15;;;;;;;0.30;0.20;;;22.00;47.60;;;;;;4935571;28;20134;-68
2022/08/31 10:30:54;;;;;;;1.65;0.28;;;22.00;48.70;;;;;;4936896;29;20039;-68
2022/08/31 10:35:01;;;;;;;2.43;0.30;;;22.10;48.60;;;;;;4930750;29;20289;-68
2022/08/31 10:36:15;;;;;;;1.17;0.20;;;22.10;47.70;;;;;;4935220;29;20053;-68
2022/08/31 10:38:46;;;;;;;1.17;0.20;;;22.20;47.40;;;;;;4899515;29;20035;-69
2022/08/31 10:41:37;;;;;;;1.33;0.20;;;22.30;47.70;;;;;;4922058;29;20367;-68
2022/08/31 10:44:22;;;;;;;1.07;0.10;;;22.40;45.90;;;;;;4912939;28;20055;-68
2022/08/31 10:46:53;;;;;;;2.38;0.30;;;22.40;46.40;;;;;;4940860;28;20084;-68
2022/08/31 10:49:20;;;;;;;1.47;0.20;;;22.40;46.70;;;;;;4923750;29;20075;-68
2022/08/31 10:52:16;;;;;;;1.23;0.10;;;22.40;46.40;;;;;;4919851;28;20405;-68
2022/08/31 10:54:57;;;;;;;1.33;0.30;;;22.40;45.50;;;;;;4934833;29;20464;-68
2022/08/31 10:57:34;;;;;;;2.47;0.20;;;22.40;44.70;;;;;;4918987;29;20377;-68
2022/08/31 11:03:21;;;;;;;1.20;0.17;;;22.40;45.50;;;;;;4926094;29;20047;-68
2022/08/31 11:05:52;;;;;;;4.70;0.20;;;22.40;45.20;;;;;;4918329;29;20073;-68
2022/08/31 11:08:23;;;;;;;0.50;0.27;;;22.40;45.70;;;;;;4934343;28;20038;-68
2022/08/31 11:10:52;;;;;;;1.03;0.20;;;22.40;45.10;;;;;;4939869;29;20051;-68
2022/08/31 11:13:24;;;;;;;1.37;0.40;;;22.40;46.00;;;;;;4924070;28;20070;-68
2022/08/31 11:16:05;;;;;;;1.93;0.20;;;22.40;45.90;;;;;;4923953;29;20050;-68
2022/08/31 11:18:39;;;;;;;0.40;0.20;;;22.50;45.20;;;;;;4919879;29;20122;-68
2022/08/31 11:21:25;;;;;;;1.02;0.20;;;22.60;46.00;;;;;;4939563;28;20456;-68
2022/08/31 11:23:51;;;;;;;1.47;0.23;;;22.70;44.60;;;;;;4938410;29;20450;-68
2022/08/31 11:26:56;;;;;;;0.50;0.20;;;22.60;44.90;;;;;;4937854;29;20043;-68
2022/08/31 11:29:55;;;;;;;0.57;0.20;;;22.60;45.40;;;;;;4922424;28;20515;-68
2022/08/31 11:32:33;;;;;;;0.53;0.20;;;22.50;45.60;;;;;;4932403;28;20047;-68
2022/08/31 11:35:07;;;;;;;5.43;0.20;;;22.50;45.80;;;;;;4934698;29;20439;-68
2022/08/31 11:37:59;;;;;;;1.00;0.20;;;22.50;45.10;;;;;;4938680;29;20129;-68
2022/08/31 11:40:52;;;;;;;2.50;0.73;;;22.60;46.20;;;;;;4937061;28;20127;-68
2022/08/31 11:43:33;;;;;;;2.60;0.30;;;22.70;46.00;;;;;;4931545;28;20050;-68
2022/08/31 11:46:24;;;;;;;0.33;0.20;;;22.90;45.50;;;;;;4933376;28;20039;-68
2022/08/31 11:48:50;;;;;;;1.53;0.30;;;23.00;44.60;;;;;;4933160;28;20036;-68
2022/08/31 11:51:36;;;;;;;1.40;0.20;;;23.00;44.90;;;;;;4930810;28;20047;-68
2022/08/31 11:54:40;;;;;;;3.00;0.20;;;23.10;44.20;;;;;;4930491;29;20043;-68
2022/08/31 11:57:30;;;;;;;0.20;0.10;;;23.10;45.00;;;;;;4918796;28;20054;-68
2022/08/31 11:59:57;;;;;;;0.30;0.13;;;23.20;44.70;;;;;;4929006;28;20143;-68
2022/08/31 12:02:24;;;;;;;1.03;0.10;;;23.40;44.50;;;;;;4932296;29;20047;-68
2022/08/31 12:04:59;;;;;;;0.60;0.10;;;23.50;44.20;;;;;;4923902;29;20055;-68
2022/08/31 12:07:28;;;;;;;;;;;23.50;44.20;;;;;;4929891;28;20134;-68
2022/08/31 12:10:05;;;;;;;2.03;0.40;;;23.50;44.00;;;;;;4928304;28;19918;-68
2022/08/31 12:13:11;;;;;;;1.93;0.30;;;23.40;44.30;;;;;;4933409;29;20051;-70
2022/08/31 12:16:02;;;;;;;3.30;0.30;;;23.50;44.40;;;;;;4929929;29;20209;-69
2022/08/31 12:19:02;;;;;;;1.60;0.20;;;23.60;44.70;;;;;;4928728;29;20055;-69
2022/08/31 12:24:30;;;;;;;1.73;0.20;;;23.80;43.60;;;;;;4924867;28;20505;-69
2022/08/31 12:27:29;;;;;;;0.65;0.20;;;23.90;44.00;;;;;;4920649;29;20222;-68
2022/08/31 12:30:21;;;;;;;2.33;0.20;;;24.00;43.60;;;;;;4933757;29;20069;-68
2022/08/31 12:33:06;;;;;;;1.97;0.20;;;24.00;43.60;;;;;;4924135;29;20102;-69
2022/08/31 12:35:34;;;;;;;1.42;0.10;;;24.10;42.80;;;;;;4912410;29;20059;-69
2022/08/31 12:38:09;;;;;;;0.50;0.20;;;24.10;43.40;;;;;;4916072;29;20043;-70
2022/08/31 12:40:47;;;;;;;2.13;0.10;;;24.20;43.30;;;;;;4926466;28;20555;-68
2022/08/31 12:43:42;;;;;;;0.70;0.20;;;24.20;42.90;;;;;;4929025;28;20040;-70
2022/08/31 12:46:30;;;;;;;0.40;0.10;;;24.20;42.90;;;;;;4930480;29;20035;-68
2022/08/31 12:49:16;;;;;;;1.00;0.20;;;24.20;43.00;;;;;;4930358;28;20321;-69
2022/08/31 12:52:05;;;;;;;1.50;0.30;;;24.20;42.60;;;;;;4925248;29;20367;-69
2022/08/31 12:54:31;;;;;;;0.47;0.10;;;24.30;42.60;;;;;;4928130;29;20043;-69
2022/08/31 12:57:28;;;;;;;0.90;0.20;;;24.30;41.90;;;;;;4908950;28;20155;-69
2022/08/31 13:00:07;;;;;;;1.80;0.13;;;24.20;42.10;;;;;;4910629;28;20582;-69
2022/08/31 13:02:39;;;;;;;1.13;0.20;;;24.20;42.10;;;;;;4934137;29;20546;-69
2022/08/31 13:05:26;;;;;;;0.40;0.10;;;24.20;41.80;;;;;;4930630;28;20146;-68
2022/08/31 13:07:53;;;;;;;1.60;0.13;;;24.30;41.90;;;;;;4926228;29;20044;-68
2022/08/31 13:10:32;;;;;;;0.43;0.20;;;24.30;42.50;;;;;;4932150;29;20039;-68
2022/08/31 13:13:07;;;;;;;2.53;0.20;;;24.20;43.00;;;;;;4930673;28;20067;-69
2022/08/31 13:15:42;;;;;;;1.30;0.20;;;24.30;43.60;;;;;;4919564;29;20102;-69
2022/08/31 13:18:13;;;;;;;1.20;0.30;;;24.30;43.70;;;;;;4915616;28;20109;-68
2022/08/31 13:20:45;;;;;;;0.70;0.20;;;24.40;43.00;;;;;;4904172;29;20519;-68
2022/08/31 13:23:25;;;;;;;0.80;0.20;;;24.50;42.20;;;;;;4908155;28;20041;-68
2022/08/31 13:26:03;;;;;;;1.43;0.20;;;24.50;42.20;;;;;;4937389;29;20043;-69
2022/08/31 13:28:29;;;;;;;2.37;0.30;;;24.50;41.80;;;;;;4923300;29;20532;-68